sensor_id;sensor_type;location;lat;lon;timestamp;P1;durP1;ratioP1;P2;durP2;ratioP2
57858;SDS011;49153;45.568;11.894;2022-09-25T00:00:25;8.63;;;6.40;;
57858;SDS011;49153;45.568;11.894;2022-09-25T00:02:51;7.63;;;6.57;;
57858;SDS011;49153;45.568;11.894;2022-09-25T00:05:17;7.47;;;6.65;;
57858;SDS011;49153;45.568;11.894;2022-09-25T00:07:42;7.80;;;6.30;;
57858;SDS011;49153;45.568;11.894;2022-09-25T00:10:07;8.07;;;6.57;;
57858;SDS011;49153;45.568;11.894;2022-09-25T00:12:33;7.72;;;6.72;;
57858;SDS011;49153;45.568;11.894;2022-09-25T00:15:00;7.40;;;6.38;;
57858;SDS011;49153;45.568;11.894;2022-09-25T00:17:26;6.97;;;6.00;;
57858;SDS011;49153;45.568;11.894;2022-09-25T00:19:51;7.40;;;6.32;;
57858;SDS011;49153;45.568;11.894;2022-09-25T00:22:17;6.85;;;6.10;;
57858;SDS011;49153;45.568;11.894;2022-09-25T00:24:44;7.90;;;6.68;;
57858;SDS011;49153;45.568;11.894;2022-09-25T00:27:09;7.15;;;6.05;;
57858;SDS011;49153;45.568;11.894;2022-09-25T00:29:35;8.52;;;6.22;;
57858;SDS011;49153;45.568;11.894;2022-09-25T00:32:02;8.35;;;7.03;;
57858;SDS011;49153;45.568;11.894;2022-09-25T00:34:28;8.60;;;6.10;;
57858;SDS011;49153;45.568;11.894;2022-09-25T00:36:54;7.05;;;5.80;;
57858;SDS011;49153;45.568;11.894;2022-09-25T00:39:19;6.72;;;6.03;;
57858;SDS011;49153;45.568;11.894;2022-09-25T00:41:45;9.18;;;6.57;;
57858;SDS011;49153;45.568;11.894;2022-09-25T00:47:14;8.23;;;6.57;;
57858;SDS011;49153;45.568;11.894;2022-09-25T00:52:10;7.25;;;6.20;;
57858;SDS011;49153;45.568;11.894;2022-09-25T00:54:50;10.02;;;7.10;;
57858;SDS011;49153;45.568;11.894;2022-09-25T00:57:26;8.35;;;6.80;;
57858;SDS011;49153;45.568;11.894;2022-09-25T00:59:56;7.88;;;6.70;;
57858;SDS011;49153;45.568;11.894;2022-09-25T01:02:30;7.88;;;6.53;;
57858;SDS011;49153;45.568;11.894;2022-09-25T01:05:02;7.85;;;6.40;;
57858;SDS011;49153;45.568;11.894;2022-09-25T01:07:31;10.75;;;6.88;;
57858;SDS011;49153;45.568;11.894;2022-09-25T01:09:59;7.60;;;6.75;;
57858;SDS011;49153;45.568;11.894;2022-09-25T01:12:26;7.50;;;6.70;;
57858;SDS011;49153;45.568;11.894;2022-09-25T01:14:52;9.30;;;6.68;;
57858;SDS011;49153;45.568;11.894;2022-09-25T01:17:31;9.27;;;7.93;;
57858;SDS011;49153;45.568;11.894;2022-09-25T01:31:52;11.27;;;8.68;;
57858;SDS011;49153;45.568;11.894;2022-09-25T01:34:41;10.20;;;8.10;;
57858;SDS011;49153;45.568;11.894;2022-09-25T01:37:20;10.20;;;8.05;;
57858;SDS011;49153;45.568;11.894;2022-09-25T01:40:10;9.35;;;7.82;;
57858;SDS011;49153;45.568;11.894;2022-09-25T01:42:50;9.15;;;8.00;;
57858;SDS011;49153;45.568;11.894;2022-09-25T01:45:25;10.60;;;8.05;;
57858;SDS011;49153;45.568;11.894;2022-09-25T01:47:57;7.97;;;7.07;;
57858;SDS011;49153;45.568;11.894;2022-09-25T01:50:30;9.77;;;7.47;;
57858;SDS011;49153;45.568;11.894;2022-09-25T01:53:00;9.65;;;7.43;;
57858;SDS011;49153;45.568;11.894;2022-09-25T01:55:34;8.32;;;6.72;;
57858;SDS011;49153;45.568;11.894;2022-09-25T02:00:43;8.95;;;6.57;;
57858;SDS011;49153;45.568;11.894;2022-09-25T02:03:17;7.68;;;6.70;;
57858;SDS011;49153;45.568;11.894;2022-09-25T02:05:51;8.23;;;6.25;;
57858;SDS011;49153;45.568;11.894;2022-09-25T02:08:21;6.32;;;5.70;;
57858;SDS011;49153;45.568;11.894;2022-09-25T02:10:54;6.45;;;5.78;;
57858;SDS011;49153;45.568;11.894;2022-09-25T02:13:24;7.60;;;5.85;;
57858;SDS011;49153;45.568;11.894;2022-09-25T02:16:02;7.18;;;5.60;;
57858;SDS011;49153;45.568;11.894;2022-09-25T02:18:41;9.30;;;5.90;;
57858;SDS011;49153;45.568;11.894;2022-09-25T02:21:35;7.07;;;5.40;;
57858;SDS011;49153;45.568;11.894;2022-09-25T02:24:15;7.07;;;5.45;;
57858;SDS011;49153;45.568;11.894;2022-09-25T02:26:41;6.00;;;5.40;;
57858;SDS011;49153;45.568;11.894;2022-09-25T02:29:07;6.97;;;5.15;;
57858;SDS011;49153;45.568;11.894;2022-09-25T02:31:41;7.15;;;5.13;;
57858;SDS011;49153;45.568;11.894;2022-09-25T02:34:27;5.72;;;4.55;;
57858;SDS011;49153;45.568;11.894;2022-09-25T02:36:53;6.15;;;4.57;;
57858;SDS011;49153;45.568;11.894;2022-09-25T02:39:20;5.57;;;4.43;;
57858;SDS011;49153;45.568;11.894;2022-09-25T02:49:37;5.28;;;4.05;;
57858;SDS011;49153;45.568;11.894;2022-09-25T02:52:18;4.57;;;3.80;;
57858;SDS011;49153;45.568;11.894;2022-09-25T03:00:03;3.95;;;3.35;;
57858;SDS011;49153;45.568;11.894;2022-09-25T03:02:32;4.47;;;3.53;;
57858;SDS011;49153;45.568;11.894;2022-09-25T03:05:01;4.72;;;3.67;;
57858;SDS011;49153;45.568;11.894;2022-09-25T03:07:29;4.97;;;3.70;;
57858;SDS011;49153;45.568;11.894;2022-09-25T03:10:15;4.45;;;4.05;;
57858;SDS011;49153;45.568;11.894;2022-09-25T03:12:42;4.00;;;3.63;;
57858;SDS011;49153;45.568;11.894;2022-09-25T03:15:07;4.35;;;3.33;;
57858;SDS011;49153;45.568;11.894;2022-09-25T03:17:34;3.90;;;3.38;;
57858;SDS011;49153;45.568;11.894;2022-09-25T03:20:01;3.55;;;3.25;;
57858;SDS011;49153;45.568;11.894;2022-09-25T03:22:26;2.80;;;2.60;;
57858;SDS011;49153;45.568;11.894;2022-09-25T03:24:52;3.80;;;3.05;;
57858;SDS011;49153;45.568;11.894;2022-09-25T03:27:18;3.25;;;2.65;;
57858;SDS011;49153;45.568;11.894;2022-09-25T03:29:44;2.88;;;2.28;;
57858;SDS011;49153;45.568;11.894;2022-09-25T03:32:10;3.05;;;2.70;;
57858;SDS011;49153;45.568;11.894;2022-09-25T03:34:35;2.88;;;2.22;;
57858;SDS011;49153;45.568;11.894;2022-09-25T03:37:00;3.35;;;2.30;;
57858;SDS011;49153;45.568;11.894;2022-09-25T03:39:26;2.42;;;2.17;;
57858;SDS011;49153;45.568;11.894;2022-09-25T03:41:51;2.35;;;2.10;;
57858;SDS011;49153;45.568;11.894;2022-09-25T03:44:17;2.50;;;2.10;;
57858;SDS011;49153;45.568;11.894;2022-09-25T03:46:42;3.50;;;2.10;;
57858;SDS011;49153;45.568;11.894;2022-09-25T03:49:08;2.22;;;2.03;;
57858;SDS011;49153;45.568;11.894;2022-09-25T03:51:34;2.42;;;1.80;;
57858;SDS011;49153;45.568;11.894;2022-09-25T03:54:00;3.10;;;1.90;;
57858;SDS011;49153;45.568;11.894;2022-09-25T03:56:27;2.47;;;2.05;;
57858;SDS011;49153;45.568;11.894;2022-09-25T03:58:54;2.88;;;1.80;;
57858;SDS011;49153;45.568;11.894;2022-09-25T04:01:20;2.28;;;1.80;;
57858;SDS011;49153;45.568;11.894;2022-09-25T04:03:47;2.00;;;1.67;;
57858;SDS011;49153;45.568;11.894;2022-09-25T04:06:14;2.22;;;1.67;;
57858;SDS011;49153;45.568;11.894;2022-09-25T04:08:42;2.40;;;1.70;;
57858;SDS011;49153;45.568;11.894;2022-09-25T04:11:08;3.08;;;1.40;;
57858;SDS011;49153;45.568;11.894;2022-09-25T04:13:35;2.17;;;1.58;;
57858;SDS011;49153;45.568;11.894;2022-09-25T04:16:01;2.15;;;1.70;;
57858;SDS011;49153;45.568;11.894;2022-09-25T04:18:29;1.85;;;1.70;;
57858;SDS011;49153;45.568;11.894;2022-09-25T04:21:03;2.53;;;1.60;;
57858;SDS011;49153;45.568;11.894;2022-09-25T04:23:30;4.13;;;1.73;;
57858;SDS011;49153;45.568;11.894;2022-09-25T04:25:56;3.92;;;2.10;;
57858;SDS011;49153;45.568;11.894;2022-09-25T04:28:22;2.22;;;1.90;;
57858;SDS011;49153;45.568;11.894;2022-09-25T04:30:48;1.80;;;1.60;;
57858;SDS011;49153;45.568;11.894;2022-09-25T04:33:14;2.63;;;1.60;;
57858;SDS011;49153;45.568;11.894;2022-09-25T04:35:58;1.70;;;1.50;;
57858;SDS011;49153;45.568;11.894;2022-09-25T04:38:23;3.13;;;1.80;;
57858;SDS011;49153;45.568;11.894;2022-09-25T04:40:49;1.95;;;1.60;;
57858;SDS011;49153;45.568;11.894;2022-09-25T04:43:14;2.17;;;1.70;;
57858;SDS011;49153;45.568;11.894;2022-09-25T04:45:40;2.35;;;2.00;;
57858;SDS011;49153;45.568;11.894;2022-09-25T04:48:05;2.38;;;1.77;;
57858;SDS011;49153;45.568;11.894;2022-09-25T04:50:31;1.83;;;1.67;;
57858;SDS011;49153;45.568;11.894;2022-09-25T04:52:57;2.00;;;1.63;;
57858;SDS011;49153;45.568;11.894;2022-09-25T04:55:24;1.83;;;1.70;;
57858;SDS011;49153;45.568;11.894;2022-09-25T04:57:50;3.28;;;1.70;;
57858;SDS011;49153;45.568;11.894;2022-09-25T05:00:16;1.95;;;1.80;;
57858;SDS011;49153;45.568;11.894;2022-09-25T05:02:43;2.92;;;1.60;;
57858;SDS011;49153;45.568;11.894;2022-09-25T05:05:12;2.10;;;1.90;;
57858;SDS011;49153;45.568;11.894;2022-09-25T05:07:39;2.13;;;1.75;;
57858;SDS011;49153;45.568;11.894;2022-09-25T05:10:07;2.17;;;1.80;;
57858;SDS011;49153;45.568;11.894;2022-09-25T05:12:33;2.75;;;2.00;;
57858;SDS011;49153;45.568;11.894;2022-09-25T05:15:00;2.75;;;2.20;;
57858;SDS011;49153;45.568;11.894;2022-09-25T05:17:26;2.40;;;2.20;;
57858;SDS011;49153;45.568;11.894;2022-09-25T05:19:51;2.67;;;2.30;;
57858;SDS011;49153;45.568;11.894;2022-09-25T05:22:17;2.40;;;2.20;;
57858;SDS011;49153;45.568;11.894;2022-09-25T05:24:42;2.15;;;1.95;;
57858;SDS011;49153;45.568;11.894;2022-09-25T05:27:08;2.47;;;2.28;;
57858;SDS011;49153;45.568;11.894;2022-09-25T05:29:33;2.40;;;2.20;;
57858;SDS011;49153;45.568;11.894;2022-09-25T05:31:59;4.65;;;2.47;;
57858;SDS011;49153;45.568;11.894;2022-09-25T05:34:25;2.20;;;2.00;;
57858;SDS011;49153;45.568;11.894;2022-09-25T05:36:50;4.10;;;2.20;;
57858;SDS011;49153;45.568;11.894;2022-09-25T05:39:16;2.50;;;2.30;;
57858;SDS011;49153;45.568;11.894;2022-09-25T05:41:41;2.40;;;2.20;;
57858;SDS011;49153;45.568;11.894;2022-09-25T05:44:07;4.55;;;2.30;;
57858;SDS011;49153;45.568;11.894;2022-09-25T05:46:37;2.60;;;2.40;;
57858;SDS011;49153;45.568;11.894;2022-09-25T05:49:03;3.30;;;2.25;;
57858;SDS011;49153;45.568;11.894;2022-09-25T05:51:29;2.38;;;2.17;;
57858;SDS011;49153;45.568;11.894;2022-09-25T05:53:55;3.58;;;2.47;;
57858;SDS011;49153;45.568;11.894;2022-09-25T05:56:21;5.18;;;2.60;;
57858;SDS011;49153;45.568;11.894;2022-09-25T05:58:50;3.25;;;2.40;;
57858;SDS011;49153;45.568;11.894;2022-09-25T06:01:17;3.03;;;2.72;;
57858;SDS011;49153;45.568;11.894;2022-09-25T06:03:43;4.22;;;2.40;;
57858;SDS011;49153;45.568;11.894;2022-09-25T06:06:09;2.67;;;2.47;;
57858;SDS011;49153;45.568;11.894;2022-09-25T06:08:35;3.10;;;2.53;;
57858;SDS011;49153;45.568;11.894;2022-09-25T06:11:00;3.70;;;2.42;;
57858;SDS011;49153;45.568;11.894;2022-09-25T06:13:27;3.00;;;2.33;;
57858;SDS011;49153;45.568;11.894;2022-09-25T06:15:55;4.57;;;2.35;;
57858;SDS011;49153;45.568;11.894;2022-09-25T06:18:22;3.35;;;2.45;;
57858;SDS011;49153;45.568;11.894;2022-09-25T06:20:48;3.83;;;2.20;;
57858;SDS011;49153;45.568;11.894;2022-09-25T06:23:15;5.53;;;2.90;;
57858;SDS011;49153;45.568;11.894;2022-09-25T06:25:40;3.15;;;2.63;;
57858;SDS011;49153;45.568;11.894;2022-09-25T06:28:06;4.20;;;2.90;;
57858;SDS011;49153;45.568;11.894;2022-09-25T06:30:33;4.13;;;2.67;;
57858;SDS011;49153;45.568;11.894;2022-09-25T06:33:03;2.95;;;2.55;;
57858;SDS011;49153;45.568;11.894;2022-09-25T06:35:43;4.15;;;3.05;;
57858;SDS011;49153;45.568;11.894;2022-09-25T06:38:10;4.57;;;3.10;;
57858;SDS011;49153;45.568;11.894;2022-09-25T06:40:36;3.95;;;3.55;;
57858;SDS011;49153;45.568;11.894;2022-09-25T06:43:05;4.05;;;3.15;;
57858;SDS011;49153;45.568;11.894;2022-09-25T06:45:35;5.97;;;3.60;;
57858;SDS011;49153;45.568;11.894;2022-09-25T06:48:07;4.60;;;4.13;;
57858;SDS011;49153;45.568;11.894;2022-09-25T06:53:08;4.60;;;4.20;;
57858;SDS011;49153;45.568;11.894;2022-09-25T06:55:35;5.45;;;4.50;;
57858;SDS011;49153;45.568;11.894;2022-09-25T06:58:01;5.70;;;4.53;;
57858;SDS011;49153;45.568;11.894;2022-09-25T07:00:28;5.82;;;4.72;;
57858;SDS011;49153;45.568;11.894;2022-09-25T07:02:56;8.70;;;5.20;;
57858;SDS011;49153;45.568;11.894;2022-09-25T07:05:41;6.60;;;4.97;;
57858;SDS011;49153;45.568;11.894;2022-09-25T07:08:08;6.90;;;5.13;;
57858;SDS011;49153;45.568;11.894;2022-09-25T07:10:34;6.45;;;5.28;;
57858;SDS011;49153;45.568;11.894;2022-09-25T07:13:00;6.93;;;6.22;;
57858;SDS011;49153;45.568;11.894;2022-09-25T07:15:25;6.97;;;6.22;;
57858;SDS011;49153;45.568;11.894;2022-09-25T07:17:51;7.57;;;5.30;;
57858;SDS011;49153;45.568;11.894;2022-09-25T07:20:16;6.15;;;5.22;;
57858;SDS011;49153;45.568;11.894;2022-09-25T07:22:42;6.72;;;4.95;;
57858;SDS011;49153;45.568;11.894;2022-09-25T07:25:08;6.82;;;5.45;;
57858;SDS011;49153;45.568;11.894;2022-09-25T07:27:34;5.03;;;4.53;;
57858;SDS011;49153;45.568;11.894;2022-09-25T07:30:00;5.65;;;4.65;;
57858;SDS011;49153;45.568;11.894;2022-09-25T07:32:27;5.25;;;4.75;;
57858;SDS011;49153;45.568;11.894;2022-09-25T07:34:53;5.93;;;5.13;;
57858;SDS011;49153;45.568;11.894;2022-09-25T07:37:19;5.85;;;5.22;;
57858;SDS011;49153;45.568;11.894;2022-09-25T07:39:44;7.75;;;4.93;;
57858;SDS011;49153;45.568;11.894;2022-09-25T07:42:10;6.70;;;5.07;;
57858;SDS011;49153;45.568;11.894;2022-09-25T07:44:35;5.75;;;4.82;;
57858;SDS011;49153;45.568;11.894;2022-09-25T07:47:01;6.05;;;5.07;;
57858;SDS011;49153;45.568;11.894;2022-09-25T07:49:28;6.53;;;4.50;;
57858;SDS011;49153;45.568;11.894;2022-09-25T07:51:54;5.80;;;4.40;;
57858;SDS011;49153;45.568;11.894;2022-09-25T07:54:19;5.00;;;4.25;;
57858;SDS011;49153;45.568;11.894;2022-09-25T07:56:45;6.13;;;4.05;;
57858;SDS011;49153;45.568;11.894;2022-09-25T07:59:10;6.40;;;4.35;;
57858;SDS011;49153;45.568;11.894;2022-09-25T08:01:35;4.68;;;4.25;;
57858;SDS011;49153;45.568;11.894;2022-09-25T08:04:01;5.35;;;4.13;;
57858;SDS011;49153;45.568;11.894;2022-09-25T08:06:26;4.95;;;4.40;;
57858;SDS011;49153;45.568;11.894;2022-09-25T08:08:52;5.43;;;4.30;;
57858;SDS011;49153;45.568;11.894;2022-09-25T08:11:17;4.68;;;3.67;;
57858;SDS011;49153;45.568;11.894;2022-09-25T08:13:43;4.78;;;3.78;;
57858;SDS011;49153;45.568;11.894;2022-09-25T08:16:11;5.85;;;4.07;;
57858;SDS011;49153;45.568;11.894;2022-09-25T08:18:38;5.28;;;3.88;;
57858;SDS011;49153;45.568;11.894;2022-09-25T08:23:38;4.53;;;4.10;;
57858;SDS011;49153;45.568;11.894;2022-09-25T08:26:04;4.90;;;4.10;;
57858;SDS011;49153;45.568;11.894;2022-09-25T08:28:30;4.35;;;3.92;;
57858;SDS011;49153;45.568;11.894;2022-09-25T08:30:59;5.40;;;4.70;;
57858;SDS011;49153;45.568;11.894;2022-09-25T08:33:27;6.53;;;4.90;;
57858;SDS011;49153;45.568;11.894;2022-09-25T08:35:54;6.20;;;5.05;;
57858;SDS011;49153;45.568;11.894;2022-09-25T08:40:52;5.07;;;4.53;;
57858;SDS011;49153;45.568;11.894;2022-09-25T08:43:23;5.80;;;5.30;;
57858;SDS011;49153;45.568;11.894;2022-09-25T08:45:50;7.95;;;5.47;;
57858;SDS011;49153;45.568;11.894;2022-09-25T08:48:39;5.20;;;4.70;;
57858;SDS011;49153;45.568;11.894;2022-09-25T08:51:30;4.80;;;4.30;;
57858;SDS011;49153;45.568;11.894;2022-09-25T08:53:59;5.25;;;4.75;;
57858;SDS011;49153;45.568;11.894;2022-09-25T08:56:28;6.78;;;5.00;;
57858;SDS011;49153;45.568;11.894;2022-09-25T08:59:10;5.60;;;4.47;;
57858;SDS011;49153;45.568;11.894;2022-09-25T09:01:43;4.43;;;3.90;;
57858;SDS011;49153;45.568;11.894;2022-09-25T09:06:51;5.13;;;3.80;;
57858;SDS011;49153;45.568;11.894;2022-09-25T09:09:28;3.97;;;3.50;;
57858;SDS011;49153;45.568;11.894;2022-09-25T09:12:03;3.42;;;3.05;;
57858;SDS011;49153;45.568;11.894;2022-09-25T09:14:38;3.75;;;3.20;;
57858;SDS011;49153;45.568;11.894;2022-09-25T09:17:14;4.40;;;2.97;;
57858;SDS011;49153;45.568;11.894;2022-09-25T09:19:43;3.08;;;2.78;;
57858;SDS011;49153;45.568;11.894;2022-09-25T09:22:12;2.90;;;2.67;;
57858;SDS011;49153;45.568;11.894;2022-09-25T09:24:54;2.92;;;2.60;;
57858;SDS011;49153;45.568;11.894;2022-09-25T09:30:15;3.50;;;3.20;;
57858;SDS011;49153;45.568;11.894;2022-09-25T09:49:12;6.97;;;5.55;;
57858;SDS011;49153;45.568;11.894;2022-09-25T09:51:55;5.68;;;5.10;;
57858;SDS011;49153;45.568;11.894;2022-09-25T09:57:00;6.00;;;5.40;;
57858;SDS011;49153;45.568;11.894;2022-09-25T09:59:28;5.45;;;4.95;;
57858;SDS011;49153;45.568;11.894;2022-09-25T10:02:10;5.47;;;4.22;;
57858;SDS011;49153;45.568;11.894;2022-09-25T10:04:42;4.90;;;4.40;;
57858;SDS011;49153;45.568;11.894;2022-09-25T10:07:13;5.40;;;4.55;;
57858;SDS011;49153;45.568;11.894;2022-09-25T10:09:42;6.28;;;4.88;;
57858;SDS011;49153;45.568;11.894;2022-09-25T10:12:12;6.03;;;5.43;;
57858;SDS011;49153;45.568;11.894;2022-09-25T10:14:45;6.13;;;5.53;;
57858;SDS011;49153;45.568;11.894;2022-09-25T10:17:12;6.95;;;5.97;;
57858;SDS011;49153;45.568;11.894;2022-09-25T10:22:26;4.53;;;4.13;;
57858;SDS011;49153;45.568;11.894;2022-09-25T10:27:27;3.45;;;3.15;;
57858;SDS011;49153;45.568;11.894;2022-09-25T10:30:27;3.92;;;3.45;;
57858;SDS011;49153;45.568;11.894;2022-09-25T10:35:27;4.93;;;4.10;;
57858;SDS011;49153;45.568;11.894;2022-09-25T10:38:15;4.00;;;3.60;;
57858;SDS011;49153;45.568;11.894;2022-09-25T10:41:05;4.40;;;3.80;;
57858;SDS011;49153;45.568;11.894;2022-09-25T10:49:16;2.70;;;2.50;;
57858;SDS011;49153;45.568;11.894;2022-09-25T10:52:05;3.55;;;2.65;;
57858;SDS011;49153;45.568;11.894;2022-09-25T10:54:33;2.72;;;2.53;;
57858;SDS011;49153;45.568;11.894;2022-09-25T10:56:59;3.25;;;2.70;;
57858;SDS011;49153;45.568;11.894;2022-09-25T10:59:26;4.20;;;2.50;;
57858;SDS011;49153;45.568;11.894;2022-09-25T11:01:53;2.50;;;2.30;;
57858;SDS011;49153;45.568;11.894;2022-09-25T11:04:21;3.25;;;2.70;;
57858;SDS011;49153;45.568;11.894;2022-09-25T11:06:54;3.38;;;2.25;;
57858;SDS011;49153;45.568;11.894;2022-09-25T11:09:23;3.07;;;2.73;;
57858;SDS011;49153;45.568;11.894;2022-09-25T11:11:51;4.07;;;2.42;;
57858;SDS011;49153;45.568;11.894;2022-09-25T11:14:29;2.83;;;2.50;;
57858;SDS011;49153;45.568;11.894;2022-09-25T11:17:00;2.67;;;1.90;;
57858;SDS011;49153;45.568;11.894;2022-09-25T11:19:33;3.20;;;2.35;;
57858;SDS011;49153;45.568;11.894;2022-09-25T11:30:15;2.00;;;1.90;;
57858;SDS011;49153;45.568;11.894;2022-09-25T11:36:02;2.45;;;2.25;;
57858;SDS011;49153;45.568;11.894;2022-09-25T11:38:27;3.03;;;2.45;;
57858;SDS011;49153;45.568;11.894;2022-09-25T11:41:45;2.22;;;1.70;;
57858;SDS011;49153;45.568;11.894;2022-09-25T11:49:41;2.45;;;1.83;;
57858;SDS011;49153;45.568;11.894;2022-09-25T11:54:56;1.80;;;1.70;;
57858;SDS011;49153;45.568;11.894;2022-09-25T12:00:28;2.35;;;2.15;;
57858;SDS011;49153;45.568;11.894;2022-09-25T12:22:06;2.63;;;2.28;;
57858;SDS011;49153;45.568;11.894;2022-09-25T12:30:05;2.33;;;2.13;;
57858;SDS011;49153;45.568;11.894;2022-09-25T12:35:16;3.13;;;2.30;;
57858;SDS011;49153;45.568;11.894;2022-09-25T12:37:46;2.60;;;2.40;;
57858;SDS011;49153;45.568;11.894;2022-09-25T12:43:29;2.20;;;2.00;;
57858;SDS011;49153;45.568;11.894;2022-09-25T12:48:34;3.92;;;2.65;;
57858;SDS011;49153;45.568;11.894;2022-09-25T12:51:10;2.80;;;2.50;;
57858;SDS011;49153;45.568;11.894;2022-09-25T12:56:14;2.88;;;2.58;;
57858;SDS011;49153;45.568;11.894;2022-09-25T13:07:25;4.03;;;2.60;;
57858;SDS011;49153;45.568;11.894;2022-09-25T13:09:55;2.60;;;2.40;;
57858;SDS011;49153;45.568;11.894;2022-09-25T13:12:27;3.10;;;2.80;;
57858;SDS011;49153;45.568;11.894;2022-09-25T13:17:37;2.28;;;2.08;;
57858;SDS011;49153;45.568;11.894;2022-09-25T13:23:12;1.92;;;1.70;;
57858;SDS011;49153;45.568;11.894;2022-09-25T13:26:15;3.33;;;2.30;;
57858;SDS011;49153;45.568;11.894;2022-09-25T13:29:02;2.72;;;2.35;;
57858;SDS011;49153;45.568;11.894;2022-09-25T13:31:44;2.10;;;1.90;;
57858;SDS011;49153;45.568;11.894;2022-09-25T13:34:12;2.50;;;2.30;;
57858;SDS011;49153;45.568;11.894;2022-09-25T13:36:50;2.40;;;2.20;;
57858;SDS011;49153;45.568;11.894;2022-09-25T13:44:57;2.05;;;1.85;;
57858;SDS011;49153;45.568;11.894;2022-09-25T13:50:06;1.92;;;1.65;;
57858;SDS011;49153;45.568;11.894;2022-09-25T14:00:23;1.40;;;1.20;;
57858;SDS011;49153;45.568;11.894;2022-09-25T14:02:57;1.35;;;1.25;;
57858;SDS011;49153;45.568;11.894;2022-09-25T14:05:33;2.30;;;1.38;;
57858;SDS011;49153;45.568;11.894;2022-09-25T14:08:08;1.70;;;1.50;;
57858;SDS011;49153;45.568;11.894;2022-09-25T14:10:36;1.52;;;1.38;;
57858;SDS011;49153;45.568;11.894;2022-09-25T14:13:12;1.48;;;1.30;;
57858;SDS011;49153;45.568;11.894;2022-09-25T14:15:40;2.25;;;1.60;;
57858;SDS011;49153;45.568;11.894;2022-09-25T14:18:08;2.65;;;1.73;;
57858;SDS011;49153;45.568;11.894;2022-09-25T14:20:43;2.17;;;1.90;;
57858;SDS011;49153;45.568;11.894;2022-09-25T14:26:02;1.98;;;1.77;;
57858;SDS011;49153;45.568;11.894;2022-09-25T14:28:33;1.90;;;1.80;;
57858;SDS011;49153;45.568;11.894;2022-09-25T14:39:54;2.63;;;2.00;;
57858;SDS011;49153;45.568;11.894;2022-09-25T14:48:03;2.08;;;1.95;;
57858;SDS011;49153;45.568;11.894;2022-09-25T14:50:34;2.30;;;1.85;;
57858;SDS011;49153;45.568;11.894;2022-09-25T14:53:04;2.20;;;2.00;;
57858;SDS011;49153;45.568;11.894;2022-09-25T14:55:36;2.03;;;1.90;;
57858;SDS011;49153;45.568;11.894;2022-09-25T14:58:06;2.45;;;2.25;;
57858;SDS011;49153;45.568;11.894;2022-09-25T15:00:34;2.25;;;2.05;;
57858;SDS011;49153;45.568;11.894;2022-09-25T15:03:07;2.25;;;2.05;;
57858;SDS011;49153;45.568;11.894;2022-09-25T15:05:37;5.07;;;3.60;;
57858;SDS011;49153;45.568;11.894;2022-09-25T15:08:18;5.47;;;3.63;;
57858;SDS011;49153;45.568;11.894;2022-09-25T15:10:47;2.22;;;2.03;;
57858;SDS011;49153;45.568;11.894;2022-09-25T15:13:17;1.92;;;1.73;;
57858;SDS011;49153;45.568;11.894;2022-09-25T15:15:45;2.50;;;2.00;;
57858;SDS011;49153;45.568;11.894;2022-09-25T15:18:31;2.33;;;2.13;;
57858;SDS011;49153;45.568;11.894;2022-09-25T15:21:01;2.65;;;2.45;;
57858;SDS011;49153;45.568;11.894;2022-09-25T15:23:26;2.67;;;2.20;;
57858;SDS011;49153;45.568;11.894;2022-09-25T15:25:55;2.63;;;2.28;;
57858;SDS011;49153;45.568;11.894;2022-09-25T15:28:24;2.50;;;2.30;;
57858;SDS011;49153;45.568;11.894;2022-09-25T15:30:55;2.03;;;1.92;;
57858;SDS011;49153;45.568;11.894;2022-09-25T15:33:32;2.15;;;1.98;;
57858;SDS011;49153;45.568;11.894;2022-09-25T15:36:07;1.95;;;1.85;;
57858;SDS011;49153;45.568;11.894;2022-09-25T15:38:35;2.47;;;2.10;;
57858;SDS011;49153;45.568;11.894;2022-09-25T15:41:05;1.80;;;1.70;;
57858;SDS011;49153;45.568;11.894;2022-09-25T15:43:32;2.45;;;2.08;;
57858;SDS011;49153;45.568;11.894;2022-09-25T15:48:37;1.83;;;1.73;;
57858;SDS011;49153;45.568;11.894;2022-09-25T15:51:16;1.90;;;1.80;;
57858;SDS011;49153;45.568;11.894;2022-09-25T15:53:51;2.30;;;2.10;;
57858;SDS011;49153;45.568;11.894;2022-09-25T16:01:19;2.58;;;2.03;;
57858;SDS011;49153;45.568;11.894;2022-09-25T16:04:25;2.40;;;2.15;;
57858;SDS011;49153;45.568;11.894;2022-09-25T16:10:03;2.42;;;1.88;;
57858;SDS011;49153;45.568;11.894;2022-09-25T16:12:49;2.15;;;1.95;;
57858;SDS011;49153;45.568;11.894;2022-09-25T16:17:50;2.40;;;2.20;;
57858;SDS011;49153;45.568;11.894;2022-09-25T16:22:44;2.30;;;2.10;;
57858;SDS011;49153;45.568;11.894;2022-09-25T16:28:04;2.53;;;2.30;;
57858;SDS011;49153;45.568;11.894;2022-09-25T16:30:32;1.88;;;1.77;;
57858;SDS011;49153;45.568;11.894;2022-09-25T16:33:14;2.53;;;2.30;;
57858;SDS011;49153;45.568;11.894;2022-09-25T16:35:47;2.65;;;2.30;;
57858;SDS011;49153;45.568;11.894;2022-09-25T16:38:35;2.80;;;2.60;;
57858;SDS011;49153;45.568;11.894;2022-09-25T16:41:03;2.65;;;2.30;;
57858;SDS011;49153;45.568;11.894;2022-09-25T16:44:12;3.28;;;2.35;;
57858;SDS011;49153;45.568;11.894;2022-09-25T16:46:43;2.67;;;2.20;;
57858;SDS011;49153;45.568;11.894;2022-09-25T16:49:16;2.67;;;2.47;;
57858;SDS011;49153;45.568;11.894;2022-09-25T16:51:43;3.33;;;2.17;;
57858;SDS011;49153;45.568;11.894;2022-09-25T16:54:13;2.97;;;2.10;;
57858;SDS011;49153;45.568;11.894;2022-09-25T16:56:40;2.40;;;2.20;;
57858;SDS011;49153;45.568;11.894;2022-09-25T16:59:20;3.10;;;2.60;;
57858;SDS011;49153;45.568;11.894;2022-09-25T17:01:48;3.13;;;2.70;;
57858;SDS011;49153;45.568;11.894;2022-09-25T17:04:16;2.72;;;2.53;;
57858;SDS011;49153;45.568;11.894;2022-09-25T17:06:45;4.32;;;2.65;;
57858;SDS011;49153;45.568;11.894;2022-09-25T17:09:14;2.50;;;2.30;;
57858;SDS011;49153;45.568;11.894;2022-09-25T17:11:42;2.83;;;2.50;;
57858;SDS011;49153;45.568;11.894;2022-09-25T17:14:21;3.22;;;2.92;;
57858;SDS011;49153;45.568;11.894;2022-09-25T17:16:49;3.28;;;2.80;;
57858;SDS011;49153;45.568;11.894;2022-09-25T17:19:15;3.33;;;3.00;;
57858;SDS011;49153;45.568;11.894;2022-09-25T17:21:42;3.38;;;2.60;;
57858;SDS011;49153;45.568;11.894;2022-09-25T17:24:10;3.45;;;3.15;;
57858;SDS011;49153;45.568;11.894;2022-09-25T17:26:37;2.65;;;2.45;;
57858;SDS011;49153;45.568;11.894;2022-09-25T17:29:03;2.72;;;2.53;;
57858;SDS011;49153;45.568;11.894;2022-09-25T17:31:29;2.78;;;2.58;;
57858;SDS011;49153;45.568;11.894;2022-09-25T17:33:55;2.70;;;2.50;;
57858;SDS011;49153;45.568;11.894;2022-09-25T17:36:21;3.13;;;2.92;;
57858;SDS011;49153;45.568;11.894;2022-09-25T17:38:46;3.20;;;2.95;;
57858;SDS011;49153;45.568;11.894;2022-09-25T17:43:45;3.58;;;2.85;;
57858;SDS011;49153;45.568;11.894;2022-09-25T17:46:11;3.78;;;3.30;;
57858;SDS011;49153;45.568;11.894;2022-09-25T17:48:40;4.28;;;3.08;;
57858;SDS011;49153;45.568;11.894;2022-09-25T17:51:19;3.33;;;3.08;;
57858;SDS011;49153;45.568;11.894;2022-09-25T17:53:47;3.67;;;3.38;;
57858;SDS011;49153;45.568;11.894;2022-09-25T17:56:13;3.72;;;3.33;;
57858;SDS011;49153;45.568;11.894;2022-09-25T17:58:39;5.78;;;3.67;;
57858;SDS011;49153;45.568;11.894;2022-09-25T18:01:13;4.43;;;3.78;;
57858;SDS011;49153;45.568;11.894;2022-09-25T18:03:46;4.18;;;3.55;;
57858;SDS011;49153;45.568;11.894;2022-09-25T18:06:13;3.95;;;3.55;;
57858;SDS011;49153;45.568;11.894;2022-09-25T18:08:38;4.07;;;3.67;;
57858;SDS011;49153;45.568;11.894;2022-09-25T18:11:04;4.65;;;3.90;;
57858;SDS011;49153;45.568;11.894;2022-09-25T18:13:29;4.60;;;4.03;;
57858;SDS011;49153;45.568;11.894;2022-09-25T18:15:55;4.30;;;3.90;;